Accueil
METAR-TAF:

METAR-TAF

Aéroports :

Tokyo-Haneda, Japon

Aéroport international de Tokyo-Haneda

latitude: 35-33N, longitude: 139-47E, altitude: 5 m

Observation

Le bulletin a été fait il y a 17 minutes, à 08:30 UTC
Vent 17 kt de sud/sud-ouest
Température 29°C
Humidité 74%
Pression 1000 hPa
Visibilité 10 km ou plus
Quelques nuages à une hauteur de 2500 ft
Nuages fragmentés

METAR: RJTT 240830Z 20017KT 9999 FEW025 BKN/// 29/24 Q1000 NOSIG

Heure: 17:47 (08:47 UTC)

Prévision

Le bulletin a été fait il y a 3 heures et 42 minutes, à 05:05 UTC
Prévision valable du 24 à 06 UTC au 25 à 12 UTC
Vent 16 kt de sud/sud-ouest
Visibilité 10 km ou plus
Quelques nuages à une hauteur de 1000 ft
Temporairement
du 24 à 06 UTC au 24 à 08 UTC
Vent 22 kt de sud/sud-ouest avec des rafales jusqu'à 32 kt

TAF: RJTT 240505Z 2406/2512 20016KT 9999 FEW010 TEMPO 2406/2408 20022G32KT

Observations et prévisions météorologiques de plus de 4000 aéroports (messages METAR et TAF).

Les stations disponibles sont représentées par des disques jaunes et rouges sur la carte.

Passer la souris dessus pour voir le nom de la station.

Cliquer dessus pour voir les observations et prévisions météorologiques.

Pour changer de carte: cliquez sur les boutons verts avec une croix noire pour zoomer, sur le bouton vert avec un tiret pour effectuer un zoom arrière, ou sur les flèches vertes pour les cartes adjacentes.


METAR-TAF: